createdAt,value
2023-06-23T00:03:24.962Z,18.90
2023-06-23T00:08:20.200Z,18.84
2023-06-23T00:13:17.157Z,18.79
2023-06-23T00:18:13.669Z,18.74
2023-06-23T00:23:09.144Z,18.70
2023-06-23T00:28:05.229Z,18.66
2023-06-23T00:33:00.497Z,18.63
2023-06-23T00:37:56.277Z,18.60
2023-06-23T00:42:53.666Z,18.58
2023-06-23T00:47:49.805Z,18.54
2023-06-23T00:52:50.899Z,18.51
2023-06-23T00:57:48.180Z,18.47
2023-06-23T01:02:43.259Z,18.45
2023-06-23T01:07:53.262Z,18.42
2023-06-23T01:12:59.497Z,18.41
2023-06-23T01:18:03.297Z,18.40
2023-06-23T01:23:24.111Z,18.38
2023-06-23T01:28:51.226Z,18.36
2023-06-23T01:33:53.882Z,18.35
2023-06-23T01:38:56.325Z,18.32
2023-06-23T01:43:57.295Z,18.31
2023-06-23T01:48:59.197Z,18.29
2023-06-23T01:53:56.589Z,18.29
2023-06-23T01:58:55.304Z,18.29
2023-06-23T02:03:52.595Z,18.30
2023-06-23T02:08:48.972Z,18.31
2023-06-23T02:13:46.635Z,18.33
2023-06-23T02:18:44.222Z,18.35
2023-06-23T02:23:42.200Z,18.35
2023-06-23T02:28:39.356Z,18.35
2023-06-23T02:33:35.670Z,18.38
2023-06-23T02:38:37.556Z,18.40
2023-06-23T02:43:39.713Z,18.43
2023-06-23T02:48:40.468Z,18.46
2023-06-23T02:53:45.581Z,18.51
2023-06-23T02:58:41.063Z,18.56
2023-06-23T03:03:39.812Z,18.64
2023-06-23T03:08:36.378Z,18.71
2023-06-23T03:13:32.423Z,18.81
2023-06-23T03:18:32.589Z,18.89
2023-06-23T03:23:32.403Z,18.99
2023-06-23T03:28:34.869Z,19.08
2023-06-23T03:33:36.591Z,19.19
2023-06-23T03:38:40.580Z,19.30
2023-06-23T03:43:42.652Z,19.43
2023-06-23T03:48:42.355Z,19.55
2023-06-23T03:53:39.731Z,19.68
2023-06-23T03:58:37.873Z,19.82
2023-06-23T04:03:38.377Z,19.95
2023-06-23T04:08:36.012Z,20.09
2023-06-23T04:13:35.041Z,20.21
2023-06-23T04:18:32.786Z,20.33
2023-06-23T04:23:29.334Z,20.47
2023-06-23T04:28:28.988Z,20.60
2023-06-23T04:33:23.872Z,20.76
2023-06-23T04:38:23.327Z,20.90
2023-06-23T04:43:27.464Z,21.05
2023-06-23T04:48:31.053Z,21.22
2023-06-23T04:53:33.684Z,21.41
2023-06-23T04:58:36.476Z,21.62
2023-06-23T05:03:35.676Z,21.83
2023-06-23T05:08:33.724Z,22.05
2023-06-23T05:13:33.195Z,22.31
2023-06-23T05:18:31.591Z,22.58
2023-06-23T05:23:38.334Z,22.86
2023-06-23T05:28:48.179Z,23.16
2023-06-23T05:33:48.094Z,23.40
2023-06-23T05:38:47.190Z,23.61
2023-06-23T05:43:42.838Z,23.79
2023-06-23T05:48:45.389Z,23.96
2023-06-23T05:53:44.029Z,24.09
2023-06-23T05:58:45.753Z,24.19
2023-06-23T06:03:47.782Z,24.31
2023-06-23T06:08:45.297Z,24.47
2023-06-23T06:13:47.138Z,24.59
2023-06-23T06:18:44.684Z,24.69
2023-06-23T06:23:42.756Z,24.81
2023-06-23T06:28:42.675Z,24.93
2023-06-23T06:33:41.482Z,25.02
2023-06-23T06:38:41.450Z,25.14
2023-06-23T06:43:36.847Z,25.29
2023-06-23T06:48:35.790Z,25.40
2023-06-23T06:53:31.686Z,25.48
2023-06-23T06:58:28.250Z,25.56
2023-06-23T07:03:23.791Z,25.59
2023-06-23T07:08:18.794Z,25.59
2023-06-23T07:13:14.694Z,25.62
2023-06-23T07:18:10.525Z,25.65
2023-06-23T07:23:05.636Z,25.71
2023-06-23T07:28:00.527Z,25.76
2023-06-23T07:32:55.948Z,25.81
2023-06-23T07:37:52.033Z,25.82
2023-06-23T07:42:47.410Z,25.80
2023-06-23T07:47:42.654Z,25.72
2023-06-23T07:52:37.576Z,25.66
2023-06-23T07:57:32.431Z,25.61
2023-06-23T08:02:27.209Z,25.59
2023-06-23T08:07:22.163Z,25.53
2023-06-23T08:12:17.647Z,25.47
2023-06-23T08:17:12.881Z,25.41
2023-06-23T08:22:09.325Z,25.31
2023-06-23T08:27:06.014Z,25.15
2023-06-23T08:32:00.793Z,24.96
2023-06-23T08:36:56.437Z,24.82
2023-06-23T08:41:52.677Z,24.70
2023-06-23T08:52:03.106Z,24.49
2023-06-23T08:56:59.973Z,24.36
2023-06-23T09:01:55.174Z,24.17
2023-06-23T09:06:50.353Z,23.95
2023-06-23T09:11:46.890Z,23.72
2023-06-23T09:16:44.468Z,23.48
2023-06-23T09:21:42.748Z,23.28
2023-06-23T09:26:49.436Z,23.12
2023-06-23T09:31:50.270Z,22.98
2023-06-23T09:36:45.288Z,22.86
2023-06-23T09:41:51.837Z,22.77
2023-06-23T09:46:47.658Z,22.69
2023-06-23T09:51:50.191Z,22.62
2023-06-23T09:56:45.456Z,22.59
2023-06-23T10:01:41.151Z,22.54
2023-06-23T10:06:40.044Z,22.43
2023-06-23T10:11:37.298Z,22.32
2023-06-23T10:16:32.923Z,22.22
2023-06-23T10:21:29.530Z,22.11
2023-06-23T10:26:27.042Z,21.98
2023-06-23T10:31:24.592Z,21.88
2023-06-23T10:36:24.249Z,21.90
2023-06-23T10:41:21.302Z,21.95
2023-06-23T10:46:16.565Z,21.99
2023-06-23T10:51:13.074Z,21.98
2023-06-23T10:56:10.358Z,22.06
2023-06-23T11:01:06.281Z,22.29
2023-06-23T11:06:07.153Z,22.46
2023-06-23T11:11:08.368Z,22.61
2023-06-23T11:16:05.709Z,22.78
2023-06-23T11:21:17.408Z,22.99
2023-06-23T11:26:30.557Z,23.14
2023-06-23T11:31:28.140Z,23.34
2023-06-23T11:36:24.659Z,23.59
2023-06-23T11:41:29.539Z,23.90
2023-06-23T11:46:26.236Z,24.40
2023-06-23T11:51:22.490Z,24.84
2023-06-23T11:56:21.359Z,25.16
2023-06-23T12:01:19.968Z,25.54
2023-06-23T12:06:16.570Z,26.01
2023-06-23T12:11:12.274Z,26.47
2023-06-23T12:16:09.347Z,27.03
2023-06-23T12:21:04.580Z,27.63
2023-06-23T12:26:01.011Z,28.13
2023-06-23T12:30:56.918Z,28.85
2023-06-23T12:36:01.068Z,29.16
2023-06-23T12:40:57.169Z,28.80
2023-06-23T12:45:55.170Z,28.62
2023-06-23T12:50:53.383Z,28.90
2023-06-23T12:55:48.429Z,29.33
2023-06-23T13:00:44.046Z,29.85
2023-06-23T13:05:39.616Z,30.51
2023-06-23T13:10:34.736Z,31.21
2023-06-23T13:15:32.822Z,31.84
2023-06-23T13:20:28.024Z,32.39
2023-06-23T13:25:23.238Z,33.16
2023-06-23T13:30:19.195Z,33.92
2023-06-23T13:35:14.454Z,34.53
2023-06-23T13:40:13.964Z,34.75
2023-06-23T13:45:11.489Z,34.36
2023-06-23T13:50:12.824Z,34.11
2023-06-23T13:55:11.765Z,33.92
2023-06-23T14:00:11.171Z,33.64
2023-06-23T14:05:08.490Z,33.44
2023-06-23T14:10:06.338Z,33.10
2023-06-23T14:15:01.956Z,32.63
2023-06-23T14:19:57.564Z,32.15
2023-06-23T14:24:53.344Z,31.60
2023-06-23T14:29:48.505Z,30.99
2023-06-23T14:34:43.986Z,30.49
2023-06-23T14:39:39.205Z,30.08
2023-06-23T14:44:35.769Z,29.64
2023-06-23T14:49:31.377Z,29.14
2023-06-23T14:54:26.476Z,28.56
2023-06-23T14:59:22.657Z,27.99
2023-06-23T15:04:17.914Z,27.44
2023-06-23T15:09:13.444Z,26.96
2023-06-23T15:14:10.363Z,26.54
2023-06-23T15:19:06.180Z,26.20
2023-06-23T15:24:02.059Z,25.94
2023-06-23T15:28:57.913Z,25.77
2023-06-23T15:33:53.887Z,25.64
2023-06-23T15:38:49.093Z,25.57
2023-06-23T15:43:44.754Z,25.50
2023-06-23T15:48:40.729Z,25.42
2023-06-23T15:53:35.528Z,25.37
2023-06-23T15:58:30.535Z,25.35
2023-06-23T16:03:28.194Z,25.36
2023-06-23T16:08:23.523Z,25.43
2023-06-23T16:13:18.725Z,25.50
2023-06-23T16:18:14.172Z,25.53
2023-06-23T16:23:09.966Z,25.71
2023-06-23T16:28:06.082Z,25.88
2023-06-23T16:33:01.773Z,25.92
2023-06-23T16:37:57.833Z,25.91
2023-06-23T16:42:52.930Z,25.88
2023-06-23T17:02:35.079Z,25.51
2023-06-23T17:15:18.709Z,25.29
2023-06-23T17:21:10.158Z,25.14
2023-06-23T17:26:31.902Z,25.01
2023-06-23T17:31:28.710Z,24.90
2023-06-23T17:36:24.637Z,24.82
2023-06-23T17:41:20.586Z,24.75
2023-06-23T17:46:16.816Z,24.68
2023-06-23T17:51:12.516Z,24.58
2023-06-23T17:57:31.024Z,24.51
2023-06-23T18:02:53.034Z,24.38
2023-06-23T18:07:48.299Z,24.31
2023-06-23T18:12:53.568Z,24.23
2023-06-23T18:19:14.336Z,24.14
2023-06-23T18:24:11.366Z,24.04
2023-06-23T18:29:17.959Z,23.98
2023-06-23T18:34:13.917Z,23.89
2023-06-23T18:39:08.457Z,23.82
2023-06-23T18:44:09.788Z,23.75
2023-06-23T18:56:08.191Z,23.46
2023-06-23T19:01:03.271Z,23.31
2023-06-23T19:05:58.681Z,23.16
2023-06-23T19:10:54.545Z,22.99
2023-06-23T19:15:49.187Z,22.82
2023-06-23T19:20:45.542Z,22.66
2023-06-23T19:25:40.698Z,22.50
2023-06-23T19:30:38.299Z,22.36
2023-06-23T19:35:37.959Z,22.21
2023-06-23T19:40:33.385Z,22.05
2023-06-23T19:45:28.999Z,21.89
2023-06-23T19:50:23.857Z,21.76
2023-06-23T19:55:18.691Z,21.66
2023-06-23T20:00:16.764Z,21.55
2023-06-23T20:05:12.997Z,21.46
2023-06-23T20:10:12.087Z,21.39
2023-06-23T20:15:10.552Z,21.33
2023-06-23T20:20:08.337Z,21.28
2023-06-23T20:25:04.486Z,21.21
2023-06-23T20:30:00.206Z,21.17
2023-06-23T20:34:55.965Z,21.13
2023-06-23T20:39:51.395Z,21.11
2023-06-23T20:44:46.714Z,21.09
2023-06-23T20:49:42.838Z,21.07
2023-06-23T20:54:37.934Z,21.04
2023-06-23T20:59:33.651Z,21.01
2023-06-23T21:04:28.515Z,20.99
2023-06-23T21:09:23.651Z,20.96
2023-06-23T21:14:20.869Z,20.93
2023-06-23T21:19:17.191Z,20.90
2023-06-23T21:24:13.613Z,20.85
2023-06-23T21:34:08.880Z,20.78
2023-06-23T21:39:05.522Z,20.75
2023-06-23T21:44:00.873Z,20.71
2023-06-23T21:48:57.373Z,20.63
2023-06-23T21:53:55.075Z,20.59
2023-06-23T21:58:50.145Z,20.58
2023-06-23T22:03:45.161Z,20.57
2023-06-23T22:08:39.810Z,20.56
2023-06-23T22:13:35.068Z,20.55
2023-06-23T22:18:48.412Z,20.54
2023-06-23T22:23:45.101Z,20.53
2023-06-23T22:28:39.828Z,20.52
2023-06-23T22:33:36.003Z,20.48
2023-06-23T22:38:31.388Z,20.42
2023-06-23T22:43:27.154Z,20.34
2023-06-23T22:48:22.451Z,20.26
2023-06-23T22:53:17.645Z,20.20
2023-06-23T22:58:13.154Z,20.14
2023-06-23T23:03:09.087Z,20.10
2023-06-23T23:08:05.591Z,20.05
2023-06-23T23:13:04.599Z,20.00
2023-06-23T23:17:59.559Z,19.94
2023-06-23T23:22:55.078Z,19.88
2023-06-23T23:27:51.818Z,19.83
2023-06-23T23:32:49.087Z,19.79
2023-06-23T23:37:45.723Z,19.77
2023-06-23T23:42:42.299Z,19.74
2023-06-23T23:47:37.867Z,19.71
2023-06-23T23:52:33.093Z,19.68
2023-06-23T23:57:29.510Z,19.64
